Time;durP1;ratioP1;P1;durP2;ratioP2;P2;SDS_P1;SDS_P2;PMS_P1;PMS_P2;Temp;Humidity;BMP_temperature;BMP_pressure;BME280_temperature;BME280_humidity;BME280_pressure;Samples;Min_cycle;Max_cycle;Signal;HPM_P1;HPM_P2
2022/11/23 00:01:32;;;;;;;;;0.50;0.50;;;;;8.84;76.94;98013.31;5115805;28;8820;-59
2022/11/23 00:04:00;;;;;;;;;0.00;0.00;;;;;8.85;76.57;98025.59;5116197;28;8873;-60
2022/11/23 00:06:29;;;;;;;;;0.50;0.00;;;;;8.84;76.47;98025.75;5114909;28;8816;-60
2022/11/23 00:08:57;;;;;;;;;0.00;0.00;;;;;8.82;77.22;98020.56;5115971;28;8851;-60
2022/11/23 00:11:25;;;;;;;;;0.00;0.00;;;;;8.83;77.03;98016.13;5116939;28;8812;-59
2022/11/23 00:13:52;;;;;;;;;0.00;0.00;;;;;8.83;76.68;98024.88;5120603;28;8811;-60
2022/11/23 00:16:20;;;;;;;;;2.50;1.00;;;;;8.84;77.01;98028.38;5119945;28;8812;-60
2022/11/23 00:18:50;;;;;;;;;0.75;0.00;;;;;8.85;77.02;98024.75;5120178;28;8844;-59
2022/11/23 00:21:17;;;;;;;;;0.00;0.00;;;;;8.82;76.90;98025.06;5119845;28;8868;-60
2022/11/23 00:23:45;;;;;;;;;0.50;0.00;;;;;8.76;77.29;98031.84;5120003;28;9485;-59
2022/11/23 00:26:13;;;;;;;;;1.00;1.00;;;;;8.73;77.34;98037.44;5119813;28;8909;-59
2022/11/23 00:28:41;;;;;;;;;0.50;0.25;;;;;8.72;77.69;98030.47;5119887;28;8816;-59
2022/11/23 00:31:09;;;;;;;;;0.00;0.00;;;;;8.74;77.68;98036.47;5119843;28;8912;-57
2022/11/23 00:33:36;;;;;;;;;0.00;0.00;;;;;8.76;77.85;98038.97;5119859;28;8820;-56
2022/11/23 00:36:04;;;;;;;;;0.00;0.00;;;;;8.79;77.41;98044.78;5119645;28;8850;-57
2022/11/23 00:38:31;;;;;;;;;1.00;1.00;;;;;8.82;77.31;98041.81;5119680;28;8820;-57
2022/11/23 00:40:59;;;;;;;;;0.00;0.00;;;;;8.86;77.41;98037.00;5119768;28;8816;-57
2022/11/23 00:43:29;;;;;;;;;1.00;1.00;;;;;8.89;77.40;98050.00;5119833;28;8859;-57
2022/11/23 00:45:57;;;;;;;;;0.00;0.00;;;;;8.91;77.56;98046.19;5119412;28;8897;-56
2022/11/23 00:48:24;;;;;;;;;0.00;0.00;;;;;8.95;77.21;98052.03;5119601;28;9511;-57
2022/11/23 00:50:52;;;;;;;;;0.00;0.00;;;;;8.96;77.30;98037.75;5119450;28;8908;-57
2022/11/23 00:53:19;;;;;;;;;0.00;0.00;;;;;8.97;76.99;98044.72;5119288;28;8816;-57
2022/11/23 00:55:47;;;;;;;;;0.00;0.00;;;;;8.98;77.07;98049.84;5119506;28;8835;-57
2022/11/23 00:58:15;;;;;;;;;0.00;0.00;;;;;8.99;77.30;98042.72;5119607;28;8904;-57
2022/11/23 01:00:43;;;;;;;;;0.00;0.00;;;;;9.00;77.33;98037.28;5119006;28;8827;-57
2022/11/23 01:03:10;;;;;;;;;0.00;0.00;;;;;9.01;77.21;98041.59;5119079;28;8896;-57
2022/11/23 01:05:38;;;;;;;;;0.00;0.00;;;;;9.02;77.15;98051.22;5118828;28;8912;-57
2022/11/23 01:08:07;;;;;;;;;0.00;0.00;;;;;9.02;76.99;98045.91;5119536;28;8828;-57
2022/11/23 01:10:34;;;;;;;;;0.00;0.00;;;;;9.03;76.92;98055.53;5118874;28;8816;-56
2022/11/23 01:13:02;;;;;;;;;0.50;0.00;;;;;9.03;76.79;98055.53;5118760;28;8835;-57
2022/11/23 01:15:30;;;;;;;;;0.00;0.00;;;;;9.03;77.06;98054.72;5119225;28;8832;-57
2022/11/23 01:17:57;;;;;;;;;0.00;0.00;;;;;9.02;77.21;98048.56;5118802;28;8832;-57
2022/11/23 01:20:28;;;;;;;;;0.00;0.00;;;;;9.01;76.80;98052.22;5119063;28;8808;-57
2022/11/23 01:22:55;;;;;;;;;0.00;0.00;;;;;9.00;77.11;98052.34;5118688;28;8816;-57
2022/11/23 01:25:23;;;;;;;;;0.00;0.00;;;;;9.00;77.18;98047.03;5118750;28;8842;-57
2022/11/23 01:27:50;;;;;;;;;0.00;0.00;;;;;8.98;77.54;98068.44;5118502;28;8820;-57
2022/11/23 01:30:18;;;;;;;;;0.25;0.00;;;;;8.98;77.54;98051.69;5118597;28;8927;-57
2022/11/23 01:32:46;;;;;;;;;0.00;0.00;;;;;8.97;77.54;98056.16;5118907;28;9476;-56
2022/11/23 01:35:14;;;;;;;;;0.00;0.00;;;;;8.97;77.34;98066.78;5098699;28;8802;-57
2022/11/23 01:37:41;;;;;;;;;0.00;0.00;;;;;8.96;77.44;98062.47;5098083;28;8826;-57
2022/11/23 01:40:09;;;;;;;;;0.00;0.00;;;;;8.95;77.18;98068.75;5098267;28;8844;-57
2022/11/23 01:42:37;;;;;;;;;1.00;0.00;;;;;8.96;77.47;98074.91;5098089;28;8818;-57
2022/11/23 01:45:07;;;;;;;;;0.00;0.00;;;;;8.95;77.89;98071.41;5098204;28;8926;-57
2022/11/23 01:47:34;;;;;;;;;1.00;1.00;;;;;8.97;77.58;98081.88;5097668;28;8956;-57
2022/11/23 01:50:02;;;;;;;;;1.00;0.00;;;;;8.97;77.84;98072.06;5097526;28;8910;-57
2022/11/23 01:52:29;;;;;;;;;0.00;0.00;;;;;8.97;77.68;98066.78;5097730;28;8814;-57
2022/11/23 01:54:57;;;;;;;;;0.00;0.00;;;;;8.98;77.48;98078.22;5116019;28;8804;-56
2022/11/23 01:57:30;;;;;;;;;0.00;0.00;;;;;9.00;77.37;98077.09;5118393;28;8828;-55
2022/11/23 01:59:58;;;;;;;;;0.25;0.00;;;;;9.03;77.57;98076.75;5118272;28;8827;-57
2022/11/23 02:02:25;;;;;;;;;0.00;0.00;;;;;9.04;77.43;98073.13;5118104;28;8836;-57
2022/11/23 02:04:53;;;;;;;;;0.25;0.25;;;;;9.04;77.52;98075.78;5118243;28;9489;-57
2022/11/23 02:07:21;;;;;;;;;0.00;0.00;;;;;9.05;77.46;98069.47;5117812;28;8827;-57
2022/11/23 02:09:48;;;;;;;;;0.00;0.00;;;;;9.08;77.69;98071.81;5118034;28;8828;-57
2022/11/23 02:12:16;;;;;;;;;0.00;0.00;;;;;9.11;77.39;98078.66;5118063;28;8832;-57
2022/11/23 02:14:44;;;;;;;;;0.75;0.00;;;;;9.13;77.35;98074.00;5112202;28;8826;-57
2022/11/23 02:17:11;;;;;;;;;0.75;0.75;;;;;9.15;77.11;98075.50;5096425;28;8856;-57
2022/11/23 02:19:39;;;;;;;;;0.00;0.00;;;;;9.16;77.00;98077.16;5097415;28;9463;-57
2022/11/23 02:22:07;;;;;;;;;0.00;0.00;;;;;9.17;77.38;98073.53;5096877;28;8887;-57
2022/11/23 02:24:34;;;;;;;;;0.00;0.00;;;;;9.19;77.16;98076.84;5112771;28;8892;-58
2022/11/23 02:27:02;;;;;;;;;0.00;0.00;;;;;9.20;77.41;98080.34;5117441;28;8908;-56
2022/11/23 02:29:32;;;;;;;;;0.00;0.00;;;;;9.22;76.75;98091.63;5117662;28;8858;-57
2022/11/23 02:32:00;;;;;;;;;0.00;0.00;;;;;9.23;77.15;98093.28;5110245;28;8853;-57
2022/11/23 02:34:28;;;;;;;;;0.00;0.00;;;;;9.24;77.43;98093.13;5096868;28;8822;-57
2022/11/23 02:36:56;;;;;;;;;0.00;0.00;;;;;9.27;76.80;98092.00;5096909;28;8900;-56
2022/11/23 02:39:23;;;;;;;;;0.00;0.00;;;;;9.28;76.47;98086.50;5096977;28;8892;-57
2022/11/23 02:41:51;;;;;;;;;0.00;0.00;;;;;9.30;76.95;98084.53;5096874;28;8814;-57
2022/11/23 02:44:19;;;;;;;;;0.00;0.00;;;;;9.31;76.61;98096.81;5096597;28;8822;-57
2022/11/23 02:46:47;;;;;;;;;0.00;0.00;;;;;9.31;76.83;98102.13;5096716;28;8814;-57
2022/11/23 02:49:14;;;;;;;;;0.00;0.00;;;;;9.32;76.50;98101.13;5096949;28;8822;-57
2022/11/23 02:51:42;;;;;;;;;0.00;0.00;;;;;9.32;76.38;98103.78;5096695;28;8818;-57
2022/11/23 02:54:10;;;;;;;;;0.00;0.00;;;;;9.32;76.78;98098.47;5108271;28;8835;-57
2022/11/23 02:56:37;;;;;;;;;1.00;0.00;;;;;9.32;76.62;98103.78;5116850;28;8913;-57
2022/11/23 02:59:06;;;;;;;;;0.00;0.00;;;;;9.32;76.85;98109.09;5116183;28;8815;-57
2022/11/23 03:01:34;;;;;;;;;2.50;2.50;;;;;9.32;77.11;98110.91;5113997;28;8816;-57
2022/11/23 03:04:01;;;;;;;;;0.00;0.00;;;;;9.32;76.86;98111.75;5096121;28;9463;-57
2022/11/23 03:06:29;;;;;;;;;1.00;1.00;;;;;9.31;76.63;98118.06;5096181;28;8907;-57
2022/11/23 03:08:57;;;;;;;;;0.00;0.00;;;;;9.31;76.43;98109.25;5096041;28;8849;-57
2022/11/23 03:11:25;;;;;;;;;2.00;1.00;;;;;9.29;76.31;98109.44;5096055;28;8814;-56
2022/11/23 03:13:52;;;;;;;;;0.00;0.00;;;;;9.29;76.61;98116.56;5096214;28;8826;-57
2022/11/23 03:16:20;;;;;;;;;0.00;0.00;;;;;9.28;76.96;98106.94;5095973;28;8830;-57
2022/11/23 03:18:48;;;;;;;;;0.00;0.00;;;;;9.28;76.43;98115.72;5096053;28;8838;-57
2022/11/23 03:21:15;;;;;;;;;0.00;0.00;;;;;9.27;76.80;98122.03;5095998;28;8826;-57
2022/11/23 03:23:44;;;;;;;;;0.00;0.00;;;;;9.22;76.92;98118.19;5103549;28;8812;-57
2022/11/23 03:26:12;;;;;;;;;1.00;0.75;;;;;9.16;77.38;98109.03;5116734;28;8828;-57
2022/11/23 03:28:40;;;;;;;;;0.25;0.00;;;;;9.11;77.24;98124.59;5116653;28;8832;-59
2022/11/23 03:31:08;;;;;;;;;0.00;0.00;;;;;9.07;77.43;98114.44;5115815;28;8908;-60
2022/11/23 03:33:35;;;;;;;;;0.25;0.25;;;;;9.02;77.42;98108.78;5096187;28;8814;-59
2022/11/23 03:36:05;;;;;;;;;0.00;0.00;;;;;8.98;77.59;98126.81;5095201;28;8834;-59
2022/11/23 03:38:33;;;;;;;;;0.25;0.25;;;;;8.94;77.56;98106.91;5095306;28;8903;-60
2022/11/23 03:41:00;;;;;;;;;0.00;0.00;;;;;8.90;77.62;98116.16;5095528;28;8830;-60
2022/11/23 03:43:28;;;;;;;;;0.00;0.00;;;;;8.87;77.96;98113.84;5094947;28;8877;-60
2022/11/23 03:45:55;;;;;;;;;0.00;0.00;;;;;8.86;78.13;98122.78;5096409;28;8886;-60
2022/11/23 03:48:23;;;;;;;;;1.00;0.00;;;;;8.84;77.88;98119.47;5100241;28;8838;-60
2022/11/23 03:50:51;;;;;;;;;0.25;0.25;;;;;8.85;77.86;98120.28;5100314;28;8838;-59
2022/11/23 03:53:18;;;;;;;;;0.00;0.00;;;;;8.86;77.83;98122.78;5103826;28;8847;-59
2022/11/23 03:55:46;;;;;;;;;0.00;0.00;;;;;8.88;77.88;98117.34;5120473;28;8888;-60
2022/11/23 03:58:13;;;;;;;;;0.00;0.00;;;;;8.88;78.09;98115.50;5120192;28;8840;-60
2022/11/23 04:00:41;;;;;;;;;0.00;0.00;;;;;8.89;78.03;98119.00;5120383;28;8904;-59
2022/11/23 04:03:09;;;;;;;;;0.00;0.00;;;;;8.89;77.91;98119.81;5106234;28;8814;-60
2022/11/23 04:05:37;;;;;;;;;0.00;0.00;;;;;8.90;78.07;98115.34;5099791;28;8895;-60
2022/11/23 04:08:04;;;;;;;;;0.00;0.00;;;;;8.90;77.99;98123.31;5099578;28;8849;-60
2022/11/23 04:10:32;;;;;;;;;0.00;0.00;;;;;8.91;77.99;98125.81;5099411;28;8911;-59
2022/11/23 04:13:01;;;;;;;;;0.00;0.00;;;;;8.92;78.08;98122.16;5099142;28;8903;-60
2022/11/23 04:15:29;;;;;;;;;0.00;0.00;;;;;8.90;78.44;98124.13;5099654;28;8837;-59
2022/11/23 04:17:56;;;;;;;;;0.00;0.00;;;;;8.90;78.03;98125.97;5099273;28;8825;-59
2022/11/23 04:20:24;;;;;;;;;0.50;0.50;;;;;8.89;78.35;98126.97;5099260;28;8826;-59
2022/11/23 04:22:51;;;;;;;;;1.00;1.00;;;;;8.87;78.55;98129.75;5099129;28;8910;-60
2022/11/23 04:25:19;;;;;;;;;0.00;0.00;;;;;8.86;78.26;98128.09;5119820;28;8843;-60
2022/11/23 04:27:47;;;;;;;;;0.00;0.00;;;;;8.85;78.33;98120.28;5120272;28;8820;-60
2022/11/23 04:30:15;;;;;;;;;0.00;0.00;;;;;8.84;78.62;98127.44;5119700;28;8816;-59
2022/11/23 04:32:43;;;;;;;;;0.00;0.00;;;;;8.83;78.77;98111.66;5110307;28;9049;-60
2022/11/23 04:35:10;;;;;;;;;0.00;0.00;;;;;8.79;78.65;98127.06;5099550;28;8926;-59
2022/11/23 04:37:40;;;;;;;;;0.00;0.00;;;;;8.74;78.88;98125.88;5099254;28;8846;-60
2022/11/23 04:40:08;;;;;;;;;1.00;0.75;;;;;8.69;79.21;98121.03;5099368;28;8818;-60
2022/11/23 04:42:36;;;;;;;;;0.00;0.00;;;;;8.65;79.29;98132.09;5098853;28;8806;-60
2022/11/23 04:45:03;;;;;;;;;1.00;0.00;;;;;8.63;78.51;98136.72;5099063;28;8842;-60
2022/11/23 04:47:31;;;;;;;;;0.00;0.00;;;;;8.61;78.99;98128.94;5099040;28;8818;-59
2022/11/23 04:50:00;;;;;;;;;0.00;0.00;;;;;8.62;79.21;98129.75;5099070;28;8832;-60
2022/11/23 04:52:28;;;;;;;;;0.00;0.00;;;;;8.62;79.13;98130.59;5098847;28;8887;-60
2022/11/23 04:54:55;;;;;;;;;0.00;0.00;;;;;8.63;79.03;98129.59;5116879;28;8912;-60
2022/11/23 04:57:23;;;;;;;;;0.00;0.00;;;;;8.64;79.16;98139.22;5118278;28;8859;-60
2022/11/23 04:59:50;;;;;;;;;0.00;0.00;;;;;8.64;79.44;98128.59;5118172;28;8820;-59
2022/11/23 05:02:19;;;;;;;;;0.50;0.50;;;;;8.65;79.31;98129.44;5114547;28;8802;-60
2022/11/23 05:04:47;;;;;;;;;0.00;0.00;;;;;8.63;78.80;98128.75;5098266;28;8900;-60
2022/11/23 05:07:14;;;;;;;;;0.75;0.50;;;;;8.59;78.94;98130.06;5098158;28;8838;-60
2022/11/23 05:09:42;;;;;;;;;1.00;1.00;;;;;8.55;79.27;98134.84;5096565;28;8850;-59
2022/11/23 05:12:10;;;;;;;;;0.00;0.00;;;;;8.54;79.43;98130.53;5097292;28;9520;-59
2022/11/23 05:14:38;;;;;;;;;0.25;0.25;;;;;8.54;79.12;98133.19;5096711;28;8834;-59
2022/11/23 05:17:06;;;;;;;;;0.00;0.00;;;;;8.54;79.53;98130.53;5097663;28;8830;-59
2022/11/23 05:19:34;;;;;;;;;0.00;0.00;;;;;8.54;79.12;98133.19;5097837;28;8815;-57
2022/11/23 05:22:01;;;;;;;;;0.25;0.25;;;;;8.52;79.42;98131.66;5097728;28;8838;-57
2022/11/23 05:24:29;;;;;;;;;0.50;0.50;;;;;8.48;79.49;98132.94;5112311;28;8820;-57
2022/11/23 05:26:57;;;;;;;;;0.00;0.00;;;;;8.44;79.88;98143.03;5118769;28;8904;-57
2022/11/23 05:29:24;;;;;;;;;0.00;0.00;;;;;8.43;79.85;98141.34;5118703;28;8828;-56
2022/11/23 05:31:52;;;;;;;;;1.00;0.50;;;;;8.44;79.84;98134.25;5118300;28;8912;-57
2022/11/23 05:34:19;;;;;;;;;0.00;0.00;;;;;8.45;80.26;98131.41;5097247;28;8798;-57
2022/11/23 05:36:47;;;;;;;;;1.00;1.00;;;;;8.46;80.15;98135.75;5097893;28;8883;-57
2022/11/23 05:39:16;;;;;;;;;0.50;0.50;;;;;8.47;79.72;98137.44;5097479;28;8845;-57
2022/11/23 05:41:43;;;;;;;;;0.00;0.00;;;;;8.50;79.76;98139.75;5097474;28;8870;-57
2022/11/23 05:44:11;;;;;;;;;0.50;0.00;;;;;8.53;79.49;98142.09;5097130;28;8810;-57
2022/11/23 05:46:38;;;;;;;;;2.00;1.00;;;;;8.54;79.80;98149.09;5097309;28;8918;-57
2022/11/23 05:49:06;;;;;;;;;1.00;1.00;;;;;8.55;79.82;98139.28;5097533;28;8903;-57
2022/11/23 05:51:34;;;;;;;;;1.00;1.00;;;;;8.55;79.44;98144.59;5097623;28;8822;-59
2022/11/23 05:54:01;;;;;;;;;0.00;0.00;;;;;8.58;79.17;98153.09;5106285;28;8892;-59
2022/11/23 05:56:29;;;;;;;;;0.00;0.00;;;;;8.60;79.13;98152.94;5097721;28;8838;-59
2022/11/23 05:59:01;;;;;;;;;1.00;0.50;;;;;8.60;78.81;98151.09;5096853;28;8821;-60
2022/11/23 06:01:29;;;;;;;;;0.00;0.00;;;;;8.61;79.07;98147.50;5097154;28;8826;-60
2022/11/23 06:03:59;;;;;;;;;0.00;0.00;;;;;8.61;79.09;98154.59;5096769;28;8834;-60
2022/11/23 06:06:27;;;;;;;;;0.00;0.00;;;;;8.61;79.31;98152.81;5096884;28;8822;-60
2022/11/23 06:08:54;;;;;;;;;0.00;0.00;;;;;8.63;78.81;98153.47;5095297;28;8869;-59
2022/11/23 06:11:22;;;;;;;;;0.00;0.00;;;;;8.62;79.32;98146.50;5096716;28;8910;-60
2022/11/23 06:13:50;;;;;;;;;0.00;0.00;;;;;8.63;79.39;98153.47;5096476;28;8826;-59
2022/11/23 06:16:19;;;;;;;;;0.75;0.50;;;;;8.64;79.01;98144.53;5096425;28;8826;-60
2022/11/23 06:18:47;;;;;;;;;0.00;0.00;;;;;8.66;79.49;98142.53;5096228;28;9147;-60
2022/11/23 06:21:15;;;;;;;;;0.00;0.00;;;;;8.68;79.28;98148.50;5095762;28;9534;-60
2022/11/23 06:23:42;;;;;;;;;2.00;0.25;;;;;8.65;79.08;98132.91;5102809;28;8912;-60
2022/11/23 06:26:10;;;;;;;;;0.00;0.00;;;;;8.62;79.19;98145.66;5115545;28;8844;-59
2022/11/23 06:28:39;;;;;;;;;1.00;0.00;;;;;8.57;79.31;98147.94;5114814;28;8823;-59
2022/11/23 06:31:06;;;;;;;;;1.00;0.00;;;;;8.52;79.23;98145.75;5115271;28;8854;-60
2022/11/23 06:33:34;;;;;;;;;0.00;0.00;;;;;8.50;79.61;98157.50;5114414;28;8868;-59
2022/11/23 06:36:01;;;;;;;;;0.00;0.00;;;;;8.51;79.27;98154.69;5114717;28;8843;-59
2022/11/23 06:38:29;;;;;;;;;0.00;0.00;;;;;8.53;79.38;98158.00;5114778;28;9505;-59
2022/11/23 06:40:57;;;;;;;;;1.00;1.00;;;;;8.53;79.18;98151.88;5113813;28;8824;-60
2022/11/23 06:43:25;;;;;;;;;0.00;0.00;;;;;8.51;79.14;98154.69;5113018;28;9585;-60
2022/11/23 06:45:52;;;;;;;;;0.00;0.00;;;;;8.48;79.27;98155.00;5113319;28;8820;-59
2022/11/23 06:48:20;;;;;;;;;0.00;0.00;;;;;8.48;78.87;98160.31;5113532;28;8854;-59
2022/11/23 06:50:48;;;;;;;;;0.00;0.00;;;;;8.51;79.24;98164.47;5113438;28;8987;-57
2022/11/23 06:53:17;;;;;;;;;0.00;0.00;;;;;8.52;79.02;98174.09;5114041;28;9505;-57
2022/11/23 06:55:44;;;;;;;;;0.50;0.50;;;;;8.54;79.19;98170.31;5114126;28;8932;-57
2022/11/23 06:58:13;;;;;;;;;0.00;0.00;;;;;8.54;78.92;98170.31;5113832;28;8828;-57
2022/11/23 07:00:41;;;;;;;;;0.00;0.00;;;;;8.53;79.24;98168.63;5114073;28;8907;-57
2022/11/23 07:03:09;;;;;;;;;0.00;0.00;;;;;8.57;79.37;98172.66;5113124;28;8823;-57
2022/11/23 07:05:38;;;;;;;;;0.00;0.00;;;;;8.60;79.07;98174.97;5113005;28;8823;-57
2022/11/23 07:08:06;;;;;;;;;0.00;0.00;;;;;8.64;79.26;98186.13;5112697;28;8850;-57
2022/11/23 07:10:34;;;;;;;;;0.00;0.00;;;;;8.69;79.19;98189.16;5112067;28;8844;-58
2022/11/23 07:13:01;;;;;;;;;0.00;0.00;;;;;8.72;79.01;98196.81;5112045;28;8828;-56
2022/11/23 07:15:29;;;;;;;;;0.00;0.00;;;;;8.75;78.91;98181.41;5112036;28;8835;-57
2022/11/23 07:17:58;;;;;;;;;0.00;0.00;;;;;8.79;78.19;98185.44;5113002;28;8835;-57
2022/11/23 07:20:26;;;;;;;;;0.00;0.00;;;;;8.79;78.24;98188.09;5112919;28;8886;-57
2022/11/23 07:22:53;;;;;;;;;1.00;0.00;;;;;8.80;79.06;98181.78;5111310;28;8836;-57
2022/11/23 07:25:21;;;;;;;;;0.00;0.00;;;;;8.81;78.48;98188.75;5112000;28;8832;-55
2022/11/23 07:27:49;;;;;;;;;0.00;0.00;;;;;8.80;78.41;98197.72;5113214;28;8916;-55
2022/11/23 07:30:20;;;;;;;;;0.00;0.00;;;;;8.79;78.61;98189.91;5113255;28;8839;-57
2022/11/23 07:32:55;;;;;;;;;0.50;0.50;;;;;8.79;78.84;98195.19;5113206;28;8836;-56
2022/11/23 07:35:23;;;;;;;;;0.00;0.00;;;;;8.79;78.61;98196.06;5113592;28;8925;-57
2022/11/23 07:37:50;;;;;;;;;0.00;0.00;;;;;8.82;78.73;98193.06;5114557;28;8840;-56
2022/11/23 07:40:18;;;;;;;;;0.00;0.00;;;;;8.86;78.76;98196.25;5114889;28;8836;-57
2022/11/23 07:42:46;;;;;;;;;0.00;0.00;;;;;8.88;78.90;98195.13;5114671;28;9486;-57
2022/11/23 07:45:14;;;;;;;;;0.25;0.25;;;;;8.89;78.62;98202.09;5114200;28;8870;-57
2022/11/23 07:47:42;;;;;;;;;0.00;0.00;;;;;8.87;78.28;98201.41;5113845;28;8851;-57
2022/11/23 07:50:09;;;;;;;;;0.00;0.00;;;;;8.82;78.70;98209.00;5112852;28;8888;-57
2022/11/23 07:52:39;;;;;;;;;0.00;0.00;;;;;8.80;78.58;98207.50;5113095;28;9497;-57
2022/11/23 07:55:06;;;;;;;;;0.50;0.50;;;;;8.77;78.68;98213.09;5112185;28;8831;-57
2022/11/23 07:57:34;;;;;;;;;4.00;2.50;;;;;8.75;78.80;98209.78;5111192;28;9230;-57
2022/11/23 08:00:02;;;;;;;;;0.50;0.25;;;;;8.73;78.32;98217.88;5109942;28;8871;-57
2022/11/23 08:02:30;;;;;;;;;0.00;0.00;;;;;8.73;78.66;98223.19;5109977;28;8970;-57
2022/11/23 08:04:59;;;;;;;;;0.25;0.25;;;;;8.75;78.63;98223.88;5110800;28;8820;-57
2022/11/23 08:07:26;;;;;;;;;0.25;0.25;;;;;8.75;78.40;98215.91;5111486;28;8843;-57
2022/11/23 08:09:54;;;;;;;;;0.00;0.00;;;;;8.77;78.34;98218.41;5111509;28;8844;-57
2022/11/23 08:12:22;;;;;;;;;0.00;0.00;;;;;8.82;78.49;98226.75;5111388;28;8850;-58
2022/11/23 08:14:50;;;;;;;;;0.00;0.00;;;;;8.91;78.30;98221.38;5111753;28;8908;-57
2022/11/23 08:17:20;;;;;;;;;0.00;0.00;;;;;9.06;77.73;98214.53;5112301;28;8820;-57
2022/11/23 08:19:48;;;;;;;;;0.50;0.50;;;;;9.26;77.37;98217.81;5112902;28;8958;-58
2022/11/23 08:22:17;;;;;;;;;1.00;0.00;;;;;9.39;77.06;98216.38;5112488;28;8908;-57
2022/11/23 08:24:44;;;;;;;;;0.00;0.00;;;;;9.43;76.67;98224.88;5112100;28;8820;-57
2022/11/23 08:27:12;;;;;;;;;0.00;0.00;;;;;9.40;77.12;98218.06;5112556;28;8832;-57
2022/11/23 08:29:40;;;;;;;;;0.00;0.00;;;;;9.33;77.02;98219.66;5112700;28;9528;-57
2022/11/23 08:32:08;;;;;;;;;0.00;0.00;;;;;9.29;76.99;98217.47;5113736;28;9555;-57
2022/11/23 08:34:36;;;;;;;;;0.00;0.00;;;;;9.25;77.25;98224.94;5117178;28;8830;-58
2022/11/23 08:37:04;;;;;;;;;0.25;0.25;;;;;9.23;76.93;98224.25;5116862;28;9547;-57
2022/11/23 08:39:32;;;;;;;;;0.00;0.00;;;;;9.23;76.88;98218.94;5117044;28;8816;-57
2022/11/23 08:42:00;;;;;;;;;0.00;0.00;;;;;9.21;76.88;98223.59;5116534;28;8892;-57
2022/11/23 08:44:28;;;;;;;;;0.00;0.00;;;;;9.20;76.77;98237.81;5116478;28;8836;-57
2022/11/23 08:46:56;;;;;;;;;0.00;0.00;;;;;9.19;76.55;98230.84;5116299;28;8900;-57
2022/11/23 08:49:24;;;;;;;;;0.00;0.00;;;;;9.22;76.34;98235.88;5116401;28;8816;-57
2022/11/23 08:51:53;;;;;;;;;0.00;0.00;;;;;9.23;76.12;98234.88;5116091;28;8876;-57
2022/11/23 08:54:23;;;;;;;;;0.00;0.00;;;;;9.27;76.42;98227.44;5116612;28;8828;-58
2022/11/23 08:56:51;;;;;;;;;1.00;1.00;;;;;9.31;75.80;98226.13;5116245;28;8827;-58
2022/11/23 08:59:19;;;;;;;;;0.00;0.00;;;;;9.35;76.33;98230.16;5116134;28;8848;-57
2022/11/23 09:01:47;;;;;;;;;0.00;0.00;;;;;9.40;75.88;98226.03;5116162;28;8832;-57
2022/11/23 09:04:14;;;;;;;;;0.75;0.00;;;;;9.44;75.56;98224.72;5114626;28;8836;-58
2022/11/23 09:06:48;;;;;;;;;0.00;0.00;;;;;9.50;75.62;98223.25;5114470;28;8874;-57
2022/11/23 09:09:16;;;;;;;;;0.00;0.00;;;;;9.55;75.10;98240.38;5113821;28;8851;-57
2022/11/23 09:11:44;;;;;;;;;0.00;0.00;;;;;9.61;75.04;98237.13;5114547;28;8851;-57
2022/11/23 09:14:12;;;;;;;;;0.00;0.00;;;;;9.65;74.80;98233.13;5112287;28;8847;-58
2022/11/23 09:16:40;;;;;;;;;0.00;0.00;;;;;9.71;74.64;98232.50;5112508;28;8820;-57
2022/11/23 09:19:08;;;;;;;;;0.00;0.00;;;;;9.74;73.68;98221.56;5112901;28;8843;-56
2022/11/23 09:21:38;;;;;;;;;0.00;0.00;;;;;9.81;74.01;98227.88;5115011;28;8940;-57
2022/11/23 09:24:05;;;;;;;;;2.00;0.00;;;;;9.86;73.78;98220.28;5115930;28;8974;-57
2022/11/23 09:26:33;;;;;;;;;1.00;0.75;;;;;9.91;73.00;98225.13;5116206;28;8900;-57
2022/11/23 09:29:01;;;;;;;;;0.00;0.00;;;;;9.93;73.25;98218.66;5116259;28;8828;-58
2022/11/23 09:31:31;;;;;;;;;1.00;0.75;;;;;9.98;73.28;98220.81;5115257;28;8834;-57
2022/11/23 09:33:59;;;;;;;;;0.00;0.00;;;;;10.04;72.71;98223.72;5115810;28;8827;-57
2022/11/23 09:36:27;;;;;;;;;0.50;0.00;;;;;10.09;72.62;98220.59;5115757;28;8843;-57
2022/11/23 09:38:55;;;;;;;;;0.00;0.00;;;;;10.14;72.05;98221.75;5115088;28;8831;-57
2022/11/23 09:41:24;;;;;;;;;0.00;0.00;;;;;10.21;71.92;98224.59;5113633;28;9533;-56
2022/11/23 09:43:53;;;;;;;;;0.25;0.25;;;;;10.27;71.26;98216.81;5112374;28;8979;-57
2022/11/23 09:46:20;;;;;;;;;0.00;0.00;;;;;10.37;71.31;98224.63;5114456;28;8859;-57
2022/11/23 09:48:48;;;;;;;;;0.00;0.00;;;;;10.42;71.11;98222.31;5113673;28;8824;-57
2022/11/23 09:51:16;;;;;;;;;1.50;1.50;;;;;10.49;70.54;98228.66;5114803;28;8875;-57
2022/11/23 09:53:44;;;;;;;;;0.75;0.75;;;;;10.56;70.80;98224.34;5114520;28;8824;-56
2022/11/23 09:56:12;;;;;;;;;1.00;1.00;;;;;10.76;69.88;98223.06;5114332;28;8839;-57
2022/11/23 09:58:40;;;;;;;;;0.00;0.00;;;;;11.10;68.93;98219.22;5113482;28;8846;-58
2022/11/23 10:01:08;;;;;;;;;0.00;0.00;;;;;11.52;67.91;98219.81;5114141;28;8846;-58
2022/11/23 10:03:37;;;;;;;;;0.50;0.50;;;;;11.91;66.70;98219.91;5111227;28;8839;-58
2022/11/23 10:06:09;;;;;;;;;0.00;0.00;;;;;12.32;66.39;98203.53;5111371;28;8820;-57
2022/11/23 10:08:37;;;;;;;;;0.00;0.00;;;;;12.64;65.41;98214.00;5110884;28;8989;-58
2022/11/23 10:11:05;;;;;;;;;0.00;0.00;;;;;12.99;64.54;98202.78;5109674;28;8835;-58
2022/11/23 10:13:33;;;;;;;;;1.00;1.00;;;;;13.39;63.34;98205.91;5109450;28;8839;-57
2022/11/23 10:16:01;;;;;;;;;0.00;0.00;;;;;13.52;62.67;98202.59;5109060;28;8823;-58
2022/11/23 10:18:29;;;;;;;;;3.00;0.50;;;;;13.69;62.96;98209.44;5110320;28;8852;-58
2022/11/23 10:20:59;;;;;;;;;0.00;0.00;;;;;13.85;62.40;98217.28;5111611;28;8886;-58
2022/11/23 10:23:27;;;;;;;;;1.00;0.25;;;;;13.67;62.93;98219.50;5111623;28;8844;-57
2022/11/23 10:25:55;;;;;;;;;0.00;0.00;;;;;13.32;63.29;98222.84;5112381;28;8956;-58
2022/11/23 10:28:23;;;;;;;;;0.00;0.00;;;;;13.06;64.42;98225.91;5113163;28;9615;-57
2022/11/23 10:30:50;;;;;;;;;1.50;1.50;;;;;12.89;64.62;98212.81;5113386;28;8835;-58
2022/11/23 10:33:20;;;;;;;;;0.50;0.50;;;;;12.95;63.51;98230.84;5113305;28;8835;-58
2022/11/23 10:35:48;;;;;;;;;0.00;0.00;;;;;12.98;63.50;98222.50;5113858;28;8828;-57
2022/11/23 10:38:16;;;;;;;;;0.00;0.00;;;;;12.91;63.71;98222.31;5113883;28;8839;-58
2022/11/23 10:40:46;;;;;;;;;0.75;0.75;;;;;12.85;63.97;98232.91;5113486;28;8828;-57
2022/11/23 10:43:13;;;;;;;;;0.00;0.00;;;;;12.69;63.96;98228.50;5114064;28;8832;-57
2022/11/23 10:45:43;;;;;;;;;1.00;0.50;;;;;12.68;64.18;98226.00;5113891;28;8819;-58
2022/11/23 10:48:11;;;;;;;;;3.00;2.50;;;;;12.46;64.43;98226.81;5113082;28;8848;-58
2022/11/23 10:50:39;;;;;;;;;0.75;0.75;;;;;12.18;64.72;98233.63;5113036;28;8840;-58
2022/11/23 10:53:07;;;;;;;;;1.75;1.25;;;;;11.95;65.51;98238.88;5113397;28;8832;-57
2022/11/23 10:55:35;;;;;;;;;1.00;1.00;;;;;11.87;65.58;98240.75;5112530;28;8823;-57
2022/11/23 10:58:06;;;;;;;;;0.50;0.50;;;;;11.84;65.61;98245.59;5112511;28;8835;-57
2022/11/23 11:00:34;;;;;;;;;1.00;1.00;;;;;11.83;65.73;98235.94;5112639;28;8835;-56
2022/11/23 11:03:02;;;;;;;;;0.00;0.00;;;;;11.80;65.08;98218.44;5112829;28;8816;-57
2022/11/23 11:05:30;;;;;;;;;2.25;1.50;;;;;11.78;65.40;98231.13;5112719;28;8828;-58
2022/11/23 11:08:18;;;;;;;;;1.00;1.00;;;;;11.88;64.95;98231.75;5111884;28;8851;-58
2022/11/23 11:10:48;;;;;;;;;3.00;3.00;;;;;11.93;64.07;98221.41;5111827;28;8832;-57
2022/11/23 11:13:16;;;;;;;;;0.75;0.75;;;;;11.90;64.49;98211.06;5111804;28;8913;-58
2022/11/23 11:15:44;;;;;;;;;2.00;1.00;;;;;11.85;64.44;98209.94;5111240;28;8839;-57
2022/11/23 11:18:14;;;;;;;;;3.50;2.00;;;;;11.72;64.45;98202.47;5110539;28;9550;-57
2022/11/23 11:20:43;;;;;;;;;2.00;1.00;;;;;11.62;64.22;98204.53;5111850;28;8860;-59
2022/11/23 11:23:11;;;;;;;;;0.00;0.00;;;;;11.58;63.92;98197.00;5112401;28;8840;-60
2022/11/23 11:25:39;;;;;;;;;0.00;0.00;;;;;11.56;64.33;98189.16;5111185;28;9168;-60
2022/11/23 11:28:07;;;;;;;;;0.75;0.75;;;;;11.51;64.68;98191.50;5111329;28;8840;-60
2022/11/23 11:30:36;;;;;;;;;1.00;1.00;;;;;11.50;64.31;98173.84;5111159;28;8836;-60
2022/11/23 11:33:06;;;;;;;;;2.00;1.00;;;;;11.55;64.32;98174.19;5110483;28;8863;-60
2022/11/23 11:35:34;;;;;;;;;1.00;1.00;;;;;11.74;63.58;98165.78;5109161;28;8843;-59
2022/11/23 11:38:02;;;;;;;;;0.25;0.25;;;;;11.88;62.53;98172.22;5109660;28;8916;-60
2022/11/23 11:40:30;;;;;;;;;0.00;0.00;;;;;11.86;63.00;98172.44;5110453;28;8847;-60
2022/11/23 11:42:58;;;;;;;;;0.25;0.25;;;;;11.95;61.98;98156.19;5109987;28;8838;-60
2022/11/23 11:45:26;;;;;;;;;0.00;0.00;;;;;12.12;61.85;98155.13;5110669;28;8820;-58
2022/11/23 11:47:55;;;;;;;;;0.00;0.00;;;;;12.18;62.58;98156.25;5109426;28;9186;-58
2022/11/23 11:50:23;;;;;;;;;1.00;1.00;;;;;12.32;61.73;98155.50;5109160;28;8934;-58
2022/11/23 11:52:58;;;;;;;;;1.00;1.00;;;;;12.49;61.18;98165.06;5109311;28;8843;-58